createdAt,value
2023-05-19T00:05:30.806Z,12.13
2023-05-19T00:20:37.991Z,11.88
2023-05-19T00:35:43.544Z,12.06
2023-05-19T00:50:49.429Z,11.63
2023-05-19T01:05:55.112Z,11.56
2023-05-19T01:21:08.344Z,11.44
2023-05-19T01:36:15.410Z,11.31
2023-05-19T01:51:21.036Z,11.38
2023-05-19T02:06:35.916Z,11.31
2023-05-19T02:21:41.508Z,11.31
2023-05-19T02:36:50.010Z,11.31
2023-05-19T02:51:55.641Z,11.31
2023-05-19T03:07:02.452Z,11.19
2023-05-19T03:22:08.309Z,11.19
2023-05-19T03:37:14.094Z,11.06
2023-05-19T03:52:19.692Z,10.88
2023-05-19T04:07:25.399Z,10.69
2023-05-19T04:22:31.266Z,10.75
2023-05-19T04:37:38.654Z,10.94
2023-05-19T04:52:45.811Z,11.25
2023-05-19T05:07:54.582Z,11.31
2023-05-19T05:23:01.383Z,11.38
2023-05-19T05:38:07.120Z,11.56
2023-05-19T05:53:19.344Z,11.94
2023-05-19T06:08:25.085Z,12.31
2023-05-19T06:23:31.830Z,13.44
2023-05-19T06:38:37.666Z,15.00
2023-05-19T06:53:43.254Z,16.44
2023-05-19T07:08:48.949Z,16.69
2023-05-19T07:23:54.850Z,17.06
2023-05-19T07:39:00.660Z,18.88
2023-05-19T07:54:06.357Z,20.63
2023-05-19T08:09:12.316Z,21.75
2023-05-19T08:24:17.997Z,22.75
2023-05-19T08:39:27.192Z,22.50
2023-05-19T08:54:38.584Z,23.13
2023-05-19T09:09:44.380Z,17.94
2023-05-19T09:24:50.880Z,18.75
2023-05-19T09:39:56.830Z,20.94
2023-05-19T09:55:03.972Z,19.25
2023-05-19T10:10:13.374Z,19.19
2023-05-19T10:25:20.331Z,19.38
2023-05-19T10:40:30.085Z,19.69
2023-05-19T10:55:53.573Z,19.81
2023-05-19T11:11:14.368Z,18.81
2023-05-19T11:26:43.720Z,19.25
2023-05-19T11:41:49.443Z,19.13
2023-05-19T11:56:55.130Z,18.56
2023-05-19T12:12:00.919Z,18.88
2023-05-19T12:27:14.051Z,17.94
2023-05-19T12:42:19.870Z,17.88
2023-05-19T12:57:25.352Z,17.31
2023-05-19T13:12:31.582Z,17.25
2023-05-19T13:27:37.002Z,17.94
2023-05-19T13:42:43.036Z,17.75
2023-05-19T13:57:48.756Z,17.38
2023-05-19T14:13:18.268Z,17.00
2023-05-19T14:28:19.998Z,16.88
2023-05-19T14:43:26.041Z,17.25
2023-05-19T14:58:31.950Z,16.88
2023-05-19T15:13:37.558Z,16.50
2023-05-19T15:28:43.304Z,16.44
2023-05-19T15:43:49.330Z,16.13
2023-05-19T15:58:54.795Z,16.06
2023-05-19T16:14:00.530Z,15.94
2023-05-19T16:29:06.232Z,15.81
2023-05-19T16:44:14.685Z,15.63
2023-05-19T16:59:20.383Z,15.44
2023-05-19T17:14:26.050Z,15.19
2023-05-19T17:29:31.692Z,15.19
2023-05-19T17:44:37.439Z,15.06
2023-05-19T17:59:44.018Z,14.88
2023-05-19T18:14:49.451Z,14.81
2023-05-19T18:29:55.131Z,14.63
2023-05-19T18:45:00.773Z,14.63
2023-05-19T19:00:07.356Z,14.44
2023-05-19T19:15:13.864Z,14.31
2023-05-19T19:30:19.798Z,14.13
2023-05-19T19:45:25.855Z,14.13
2023-05-19T20:00:33.094Z,13.88
2023-05-19T20:15:38.816Z,13.75
2023-05-19T20:30:44.391Z,13.56
2023-05-19T20:45:50.026Z,13.50
2023-05-19T21:00:58.136Z,13.25
2023-05-19T21:16:03.815Z,12.94
2023-05-19T21:31:09.362Z,13.19
2023-05-19T21:46:14.933Z,13.00
2023-05-19T22:01:20.859Z,13.25
2023-05-19T22:16:26.465Z,12.88
2023-05-19T22:31:32.759Z,12.69
2023-05-19T22:46:38.468Z,12.63
2023-05-19T23:01:44.164Z,12.56
2023-05-19T23:16:50.121Z,12.38
2023-05-19T23:31:56.065Z,12.50
2023-05-19T23:47:01.834Z,12.50
